Time;durP1;ratioP1;P1;durP2;ratioP2;P2;SDS_P1;SDS_P2;PMS_P1;PMS_P2;Temp;Humidity;BMP_temperature;BMP_pressure;BME280_temperature;BME280_humidity;BME280_pressure;Samples;Min_cycle;Max_cycle;Signal;HPM_P1;HPM_P2
2023/12/14 00:00:31;;;;;;;42.90;21.63;;;;;;;4.57;100.00;99989.84;7397112;19;20075;-69
2023/12/14 00:03:00;;;;;;;42.47;19.92;;;;;;;4.55;100.00;99984.66;7395299;19;20089;-69
2023/12/14 00:05:29;;;;;;;41.75;21.08;;;;;;;4.55;100.00;99986.41;7396254;19;20094;-69
2023/12/14 00:07:57;;;;;;;38.83;19.92;;;;;;;4.54;100.00;99993.31;7394860;19;20020;-69
2023/12/14 00:10:28;;;;;;;34.63;18.05;;;;;;;4.50;100.00;99989.03;7395143;19;20014;-69
2023/12/14 00:12:57;;;;;;;30.02;17.00;;;;;;;4.51;100.00;99992.47;7394341;19;20018;-69
2023/12/14 00:15:25;;;;;;;29.67;16.38;;;;;;;4.50;100.00;99988.16;7392008;19;20020;-69
2023/12/14 00:17:54;;;;;;;32.15;16.15;;;;;;;4.47;100.00;99991.63;7394727;19;20369;-69
2023/12/14 00:20:22;;;;;;;30.17;17.33;;;;;;;4.47;100.00;99994.25;7394858;19;20019;-69
2023/12/14 00:22:51;;;;;;;28.30;17.77;;;;;;;4.45;100.00;100005.53;7393980;19;20078;-69
2023/12/14 00:25:19;;;;;;;29.75;17.67;;;;;;;4.44;100.00;100004.66;7394321;19;20384;-69
2023/12/14 00:27:50;;;;;;;29.17;17.35;;;;;;;4.43;100.00;100004.69;7394255;19;20481;-69
2023/12/14 00:30:19;;;;;;;35.50;18.25;;;;;;;4.39;100.00;100015.09;7394353;19;20410;-69
2023/12/14 00:32:54;;;;;;;31.70;17.58;;;;;;;4.39;100.00;100022.03;7393793;19;20415;-70
2023/12/14 00:35:22;;;;;;;36.13;18.02;;;;;;;4.37;100.00;100026.38;7394788;19;20034;-69
2023/12/14 00:37:51;;;;;;;28.83;16.60;;;;;;;4.36;100.00;100027.22;7394299;19;20070;-70
2023/12/14 00:40:19;;;;;;;26.08;15.15;;;;;;;4.32;100.00;100026.41;7394312;19;20006;-69
2023/12/14 00:42:50;;;;;;;27.02;16.05;;;;;;;4.33;100.00;100033.31;7393481;19;20014;-69
2023/12/14 00:45:19;;;;;;;30.83;16.70;;;;;;;4.32;100.00;100028.13;7394529;19;20078;-69
2023/12/14 00:47:47;;;;;;;29.02;16.27;;;;;;;4.31;100.00;100027.28;7393670;19;20422;-69
2023/12/14 00:50:16;;;;;;;32.60;17.00;;;;;;;4.30;100.00;100030.75;7393989;19;20078;-69
2023/12/14 00:52:44;;;;;;;30.85;16.42;;;;;;;4.31;100.00;100042.88;7392846;19;20028;-69
2023/12/14 00:55:19;;;;;;;30.40;16.85;;;;;;;4.31;100.00;100042.88;7390974;19;20074;-70
2023/12/14 00:57:50;;;;;;;31.90;16.58;;;;;;;4.31;100.00;100042.00;7393658;19;20070;-69
2023/12/14 01:00:20;;;;;;;28.77;17.20;;;;;;;4.32;100.00;100051.50;7390994;19;20035;-69
2023/12/14 01:02:49;;;;;;;29.10;16.27;;;;;;;4.32;100.00;100054.09;7392818;19;20019;-70
2023/12/14 01:05:18;;;;;;;23.85;14.77;;;;;;;4.29;100.00;100051.53;7393500;19;20086;-69
2023/12/14 01:07:53;;;;;;;28.25;15.27;;;;;;;4.25;100.00;100055.91;6260742;19;22221770;-69
2023/12/14 01:10:22;;;;;;;25.08;15.20;;;;;;;4.22;100.00;100066.28;7395638;19;20101;-69
2023/12/14 01:12:53;;;;;;;25.92;15.07;;;;;;;4.18;100.00;100065.47;7394158;19;20384;-69
2023/12/14 01:15:21;;;;;;;24.85;15.45;;;;;;;4.15;100.00;100068.06;7395105;19;20094;-70
2023/12/14 01:17:50;;;;;;;24.67;13.93;;;;;;;4.13;100.00;100077.59;7394552;19;20070;-69
2023/12/14 01:20:18;;;;;;;24.15;15.00;;;;;;;4.13;100.00;100079.34;7392619;19;20012;-70
2023/12/14 01:22:47;;;;;;;28.30;16.10;;;;;;;4.13;100.00;100087.13;7393899;19;20083;-70
2023/12/14 01:25:15;;;;;;;27.50;16.75;;;;;;;4.11;100.00;100091.44;7394746;19;20035;-67
2023/12/14 01:27:43;;;;;;;28.35;16.85;;;;;;;4.10;100.00;100092.34;7394267;19;20494;-67
2023/12/14 01:30:15;;;;;;;33.85;17.88;;;;;;;4.11;100.00;100088.84;7394586;19;20014;-68
2023/12/14 01:32:44;;;;;;;27.42;17.75;;;;;;;4.14;100.00;100099.25;7392692;19;20422;-68
2023/12/14 01:35:12;;;;;;;30.25;17.38;;;;;;;4.13;100.00;100105.28;7394550;19;20027;-68
2023/12/14 01:37:41;;;;;;;30.85;18.35;;;;;;;4.11;100.00;100107.91;7394075;19;20010;-67
2023/12/14 01:40:10;;;;;;;28.73;18.02;;;;;;;4.11;100.00;100112.22;7392736;19;20007;-68
2023/12/14 01:42:39;;;;;;;31.48;18.00;;;;;;;4.11;100.00;100110.50;7393899;19;20027;-68
2023/12/14 01:45:09;;;;;;;29.65;17.30;;;;;;;4.13;100.00;100115.69;7394245;19;20070;-67
2023/12/14 01:47:40;;;;;;;30.30;16.85;;;;;;;4.13;100.00;100116.53;7393739;19;20107;-67
2023/12/14 01:50:09;;;;;;;26.98;16.58;;;;;;;4.14;100.00;100117.41;7393791;19;20015;-67
2023/12/14 01:52:38;;;;;;;30.15;17.25;;;;;;;4.14;100.00;100118.25;7393567;19;20078;-68
2023/12/14 01:55:07;;;;;;;26.55;16.20;;;;;;;4.13;100.00;100124.31;7393537;19;20499;-68
2023/12/14 01:57:36;;;;;;;29.17;16.95;;;;;;;4.14;100.00;100125.19;7393864;19;20070;-68
2023/12/14 02:00:04;;;;;;;28.10;16.95;;;;;;;4.15;100.00;100126.94;7392262;19;20375;-67
2023/12/14 02:02:35;;;;;;;29.65;17.17;;;;;;;4.15;100.00;100124.34;7393505;19;20436;-67
2023/12/14 02:05:06;;;;;;;27.55;16.90;;;;;;;4.16;100.00;100126.06;7391317;19;20517;-68
2023/12/14 02:07:41;;;;;;;27.50;16.05;;;;;;;4.12;100.00;100125.22;7395728;19;20019;-68
2023/12/14 02:10:11;;;;;;;26.50;15.57;;;;;;;4.17;100.00;100135.56;7400415;19;20086;-67
2023/12/14 02:12:39;;;;;;;28.23;16.35;;;;;;;4.17;100.00;100131.25;7400783;19;20011;-68
2023/12/14 02:15:09;;;;;;;23.92;15.25;;;;;;;4.17;100.00;100130.38;7400746;19;20031;-70
2023/12/14 02:17:37;;;;;;;23.90;14.98;;;;;;;4.15;100.00;100132.97;7400242;19;20083;-69
2023/12/14 02:20:09;;;;;;;24.17;14.43;;;;;;;4.13;100.00;100133.84;7398768;19;20028;-69
2023/12/14 02:22:51;;;;;;;19.92;13.80;;;;;;;4.11;100.00;100135.59;7399772;19;20428;-70
2023/12/14 02:25:20;;;;;;;24.02;15.82;;;;;;;4.08;100.00;100139.94;7400711;19;20007;-69
2023/12/14 02:27:49;;;;;;;28.48;15.77;;;;;;;4.08;100.00;100145.13;7400333;19;20023;-69
2023/12/14 02:30:17;;;;;;;24.85;15.15;;;;;;;4.05;100.00;100155.50;7399822;19;20505;-69
2023/12/14 02:32:46;;;;;;;25.48;16.13;;;;;;;4.02;100.00;100163.31;7399522;19;20083;-69
2023/12/14 02:35:15;;;;;;;25.17;17.10;;;;;;;3.98;100.00;100165.94;7400071;19;20015;-69
2023/12/14 02:37:46;;;;;;;27.02;17.00;;;;;;;3.94;100.00;100172.88;7399989;19;20011;-69
2023/12/14 02:40:15;;;;;;;29.08;16.83;;;;;;;3.92;100.00;100172.03;7398661;19;20070;-69
2023/12/14 02:42:43;;;;;;;29.95;17.88;;;;;;;3.92;100.00;100174.63;7399290;19;20083;-69
2023/12/14 02:45:12;;;;;;;32.22;17.77;;;;;;;3.92;100.00;100177.22;7399704;19;20023;-69
2023/12/14 02:47:41;;;;;;;30.42;16.42;;;;;;;3.88;100.00;100181.56;7399228;19;20423;-69
2023/12/14 02:50:10;;;;;;;31.92;17.52;;;;;;;3.86;100.00;100178.09;7399291;19;20007;-69
2023/12/14 02:52:39;;;;;;;36.85;19.05;;;;;;;3.83;100.00;100182.41;7399372;19;20553;-70
2023/12/14 02:55:10;;;;;;;33.42;18.55;;;;;;;3.81;100.00;100191.97;7399351;19;20011;-69
2023/12/14 02:57:39;;;;;;;29.70;16.70;;;;;;;3.78;100.00;100198.03;7397109;19;20086;-70
2023/12/14 03:00:09;;;;;;;28.95;15.35;;;;;;;3.75;100.00;100198.00;7397817;19;20014;-69
2023/12/14 03:02:38;;;;;;;26.02;14.90;;;;;;;3.71;100.00;100202.34;7399679;19;20358;-69
2023/12/14 03:05:07;;;;;;;25.23;15.43;;;;;;;3.67;100.00;100203.22;7400188;19;20369;-70
2023/12/14 03:07:42;;;;;;;24.73;13.85;;;;;;;3.67;100.00;100213.59;7396286;19;20018;-70
2023/12/14 03:10:19;;;;;;;23.15;13.60;;;;;;;3.66;100.00;100222.25;7399673;19;20082;-69
2023/12/14 03:12:47;;;;;;;24.42;14.32;;;;;;;3.66;100.00;100221.41;7398417;19;20014;-69
2023/12/14 03:15:20;;;;;;;25.33;15.18;;;;;;;3.65;100.00;100212.75;7398733;19;20015;-69
2023/12/14 03:17:49;;;;;;;26.75;15.48;;;;;;;3.66;100.00;100219.66;7395451;19;20371;-69
2023/12/14 03:20:17;;;;;;;29.52;16.17;;;;;;;3.64;100.00;100236.09;7395331;19;20495;-69
2023/12/14 03:22:46;;;;;;;25.95;14.15;;;;;;;3.61;100.00;100228.31;7398106;19;20081;-70
2023/12/14 03:25:15;;;;;;;26.88;15.57;;;;;;;3.55;100.00;100239.56;7399559;19;20024;-69
2023/12/14 03:27:47;;;;;;;29.05;15.10;;;;;;;3.51;100.00;100240.44;7397790;19;20360;-69
2023/12/14 03:30:15;;;;;;;28.00;15.05;;;;;;;3.43;100.00;100245.63;7398616;19;20027;-69
2023/12/14 03:32:44;;;;;;;30.45;15.02;;;;;;;3.35;100.00;100245.63;7397250;19;20477;-68
2023/12/14 03:35:12;;;;;;;31.58;15.20;;;;;;;3.28;100.00;100254.25;7397995;19;20079;-68
2023/12/14 03:37:41;;;;;;;28.65;14.63;;;;;;;3.22;100.00;100255.16;7397872;19;20015;-68
2023/12/14 03:40:10;;;;;;;23.95;13.70;;;;;;;3.15;100.00;100249.97;7396556;19;20019;-68
2023/12/14 03:42:38;;;;;;;27.80;14.57;;;;;;;3.14;100.00;100253.41;7397349;19;20070;-67
2023/12/14 03:45:10;;;;;;;29.42;15.23;;;;;;;3.13;100.00;100251.66;7397734;19;20074;-67
2023/12/14 03:47:39;;;;;;;26.52;14.13;;;;;;;3.13;100.00;100255.13;7397229;19;20066;-66
2023/12/14 03:50:09;;;;;;;26.73;13.60;;;;;;;3.17;100.00;100259.47;7395836;19;20085;-66
2023/12/14 03:52:38;;;;;;;27.40;14.40;;;;;;;3.20;100.00;100262.03;7397740;19;20010;-66
2023/12/14 03:55:07;;;;;;;25.65;14.50;;;;;;;3.20;100.00;100258.59;7398192;19;20024;-67
2023/12/14 03:57:36;;;;;;;24.95;12.93;;;;;;;3.19;100.00;100268.09;7396607;19;20069;-67
2023/12/14 04:00:15;;;;;;;22.80;13.40;;;;;;;3.17;100.00;100268.94;7396229;19;20023;-67
2023/12/14 04:02:43;;;;;;;25.25;13.32;;;;;;;3.15;100.00;100271.53;7396755;19;20017;-67
2023/12/14 04:05:12;;;;;;;25.83;13.45;;;;;;;3.12;100.00;100276.72;7396684;19;20027;-67
2023/12/14 04:07:42;;;;;;;27.52;13.52;;;;;;;3.13;100.00;100286.22;7395357;19;20014;-67
2023/12/14 04:10:11;;;;;;;24.10;13.65;;;;;;;3.10;100.00;100288.81;7396414;19;20372;-67
2023/12/14 04:12:40;;;;;;;26.25;13.13;;;;;;;3.12;100.00;100288.81;7396104;19;20342;-67
2023/12/14 04:15:13;;;;;;;26.60;14.35;;;;;;;3.08;100.00;100291.41;7396146;19;20028;-67
2023/12/14 04:17:41;;;;;;;27.48;14.32;;;;;;;3.08;100.00;100294.00;7397113;19;20395;-66
2023/12/14 04:20:11;;;;;;;28.05;14.93;;;;;;;3.09;100.00;100311.28;7395097;19;20010;-65
2023/12/14 04:22:40;;;;;;;25.90;14.32;;;;;;;3.08;100.00;100306.09;7396056;19;20035;-66
2023/12/14 04:25:09;;;;;;;25.00;13.68;;;;;;;3.07;100.00;100313.00;7396318;19;20011;-66
2023/12/14 04:27:38;;;;;;;27.70;13.98;;;;;;;3.06;100.00;100313.00;7396235;19;20014;-66
2023/12/14 04:30:10;;;;;;;29.63;14.48;;;;;;;3.07;100.00;100315.59;7395580;19;20022;-67
2023/12/14 04:32:41;;;;;;;24.30;14.23;;;;;;;3.07;100.00;100320.78;7394857;19;20010;-67
2023/12/14 04:35:10;;;;;;;25.10;14.77;;;;;;;3.08;100.00;100324.22;7395562;19;20027;-67
2023/12/14 04:37:39;;;;;;;27.10;15.23;;;;;;;3.05;100.00;100327.69;7395839;19;20081;-67
2023/12/14 04:40:09;;;;;;;32.08;16.13;;;;;;;3.06;100.00;100336.34;7394709;19;20519;-66
2023/12/14 04:42:38;;;;;;;30.48;16.48;;;;;;;3.05;100.00;100335.47;7395804;19;20031;-67
2023/12/14 04:45:08;;;;;;;29.35;16.08;;;;;;;3.04;100.00;100341.50;7396537;19;20007;-66
2023/12/14 04:47:37;;;;;;;32.28;15.40;;;;;;;3.04;100.00;100345.84;7395038;19;20485;-66
2023/12/14 04:50:09;;;;;;;27.40;15.05;;;;;;;3.02;100.00;100348.44;7393805;19;20032;-66
2023/12/14 04:52:38;;;;;;;28.50;15.60;;;;;;;3.01;100.00;100351.88;7395435;19;20035;-67
2023/12/14 04:55:08;;;;;;;31.48;14.73;;;;;;;2.99;100.00;100361.34;7395145;19;20391;-67
2023/12/14 04:57:43;;;;;;;25.50;15.10;;;;;;;2.98;100.00;100359.63;7393225;19;20010;-66
2023/12/14 05:00:12;;;;;;;26.70;14.73;;;;;;;2.99;100.00;100368.28;7394182;19;20098;-66
2023/12/14 05:02:41;;;;;;;25.35;13.77;;;;;;;2.98;100.00;100364.81;7394405;19;20012;-67
2023/12/14 05:05:12;;;;;;;24.20;14.60;;;;;;;2.97;100.00;100363.09;7394995;19;20011;-67
2023/12/14 05:07:40;;;;;;;23.40;13.38;;;;;;;3.00;100.00;100365.69;7393589;19;20094;-66
2023/12/14 05:10:10;;;;;;;25.48;14.25;;;;;;;3.02;100.00;100374.34;7394487;19;20367;-66
2023/12/14 05:12:38;;;;;;;29.48;13.77;;;;;;;3.01;100.00;100388.16;7394515;19;20007;-66
2023/12/14 05:15:08;;;;;;;25.33;13.93;;;;;;;2.98;100.00;100393.31;7392295;19;20497;-66
2023/12/14 05:17:38;;;;;;;24.30;13.30;;;;;;;2.94;100.00;100391.56;7393960;19;20015;-67
2023/12/14 05:20:10;;;;;;;24.25;13.63;;;;;;;2.86;100.00;100388.97;7393974;19;20013;-66
2023/12/14 05:22:41;;;;;;;24.42;13.57;;;;;;;2.90;100.00;100401.06;7394107;19;20070;-66
2023/12/14 05:25:17;;;;;;;22.98;13.38;;;;;;;2.90;100.00;100400.22;7395039;19;20022;-67
2023/12/14 05:27:45;;;;;;;22.40;13.07;;;;;;;2.90;100.00;100403.66;7394330;19;20015;-67
2023/12/14 05:30:15;;;;;;;18.70;11.63;;;;;;;2.90;100.00;100410.56;7394406;19;20018;-66
2023/12/14 05:32:50;;;;;;;19.98;11.88;;;;;;;2.89;100.00;100414.03;7393283;19;20418;-67
2023/12/14 05:35:18;;;;;;;19.40;11.80;;;;;;;2.88;100.00;100426.13;7393649;19;20023;-66
2023/12/14 05:37:49;;;;;;;17.88;12.13;;;;;;;2.86;100.00;100430.41;7391952;19;20022;-66
2023/12/14 05:40:18;;;;;;;22.05;12.10;;;;;;;2.85;100.00;100438.19;7393047;19;20070;-66
2023/12/14 05:42:54;;;;;;;18.85;11.93;;;;;;;2.81;100.00;100444.22;7395648;19;20015;-68
2023/12/14 05:45:22;;;;;;;20.15;12.32;;;;;;;2.80;100.00;100455.44;7401320;19;20006;-69
2023/12/14 05:47:51;;;;;;;22.33;12.70;;;;;;;2.78;100.00;100455.44;7401446;19;20015;-67
2023/12/14 05:50:19;;;;;;;21.88;11.95;;;;;;;2.75;100.00;100452.81;7401308;19;20065;-66
2023/12/14 05:52:50;;;;;;;23.67;13.02;;;;;;;2.74;100.00;100457.13;7400466;19;20018;-67
2023/12/14 05:55:21;;;;;;;20.42;12.50;;;;;;;2.71;100.00;100457.09;7398450;19;20014;-67
2023/12/14 05:57:50;;;;;;;21.90;12.80;;;;;;;2.72;100.00;100461.44;7400677;19;20027;-67
2023/12/14 06:00:20;;;;;;;21.60;12.73;;;;;;;2.73;100.00;100464.88;7398462;19;20010;-67
2023/12/14 06:02:48;;;;;;;23.00;12.82;;;;;;;2.73;100.00;100476.13;7399720;19;20018;-68
2023/12/14 06:05:17;;;;;;;20.70;13.23;;;;;;;2.74;100.00;100474.38;7400943;19;20018;-67
2023/12/14 06:07:45;;;;;;;25.20;14.23;;;;;;;2.73;100.00;100478.72;7397239;19;20007;-67
2023/12/14 06:10:16;;;;;;;21.30;13.38;;;;;;;2.73;100.00;100486.50;7396990;19;20014;-67
2023/12/14 06:12:45;;;;;;;23.55;14.10;;;;;;;2.74;100.00;100482.16;7401842;19;20032;-66
2023/12/14 06:15:13;;;;;;;24.65;13.40;;;;;;;2.72;100.00;100489.06;7401485;19;20014;-66
2023/12/14 06:17:42;;;;;;;24.60;13.43;;;;;;;2.70;100.00;100501.16;7399218;19;20024;-66
2023/12/14 06:20:12;;;;;;;25.38;14.07;;;;;;;2.69;100.00;100502.00;7399549;19;20078;-67
2023/12/14 06:22:40;;;;;;;30.23;16.83;;;;;;;2.69;100.00;100508.06;7398348;19;20029;-67
2023/12/14 06:25:10;;;;;;;29.50;16.65;;;;;;;2.69;100.00;100505.47;7398281;19;20014;-67
2023/12/14 06:27:41;;;;;;;29.45;15.15;;;;;;;2.69;100.00;100523.59;7398626;19;20015;-66
2023/12/14 06:30:11;;;;;;;27.90;14.27;;;;;;;2.66;100.00;100520.97;7398824;19;20024;-66
2023/12/14 06:32:40;;;;;;;25.60;14.63;;;;;;;2.66;100.00;100526.16;7400230;19;20043;-66
2023/12/14 06:35:09;;;;;;;28.58;15.32;;;;;;;2.66;100.00;100522.72;7398768;19;20023;-67
2023/12/14 06:37:37;;;;;;;28.17;15.20;;;;;;;2.64;100.00;100522.72;7399158;19;20023;-67
2023/12/14 06:40:07;;;;;;;27.08;14.52;;;;;;;2.66;100.00;100527.91;7396689;19;20343;-67
2023/12/14 06:42:36;;;;;;;31.63;16.63;;;;;;;2.67;100.00;100530.47;7396837;19;20018;-67
2023/12/14 06:45:08;;;;;;;25.20;14.43;;;;;;;2.69;100.00;100536.56;7398049;19;20070;-67
2023/12/14 06:47:36;;;;;;;29.80;15.98;;;;;;;2.72;100.00;100531.38;7399126;19;20018;-67
2023/12/14 06:50:05;;;;;;;28.40;14.70;;;;;;;2.74;100.00;100539.16;7398644;19;20084;-67
2023/12/14 06:52:33;;;;;;;28.00;14.75;;;;;;;2.75;100.00;100536.56;7396041;19;20007;-67
2023/12/14 06:55:02;;;;;;;27.77;14.32;;;;;;;2.76;100.00;100545.22;7398717;19;20027;-67
2023/12/14 06:57:30;;;;;;;27.92;14.93;;;;;;;2.74;100.00;100559.88;7398873;19;20011;-67
2023/12/14 06:59:59;;;;;;;24.65;14.07;;;;;;;2.73;100.00;100565.91;7398800;19;20027;-66
2023/12/14 07:02:30;;;;;;;26.45;15.80;;;;;;;2.71;100.00;100565.91;7396170;19;20024;-67
2023/12/14 07:04:59;;;;;;;28.48;15.68;;;;;;;2.73;100.00;100568.50;7398339;19;20035;-67
2023/12/14 07:07:27;;;;;;;23.30;14.70;;;;;;;2.69;100.00;100582.31;7396422;19;20013;-67
2023/12/14 07:09:56;;;;;;;26.58;15.70;;;;;;;2.69;100.00;100577.13;7398273;19;20022;-66
2023/12/14 07:12:24;;;;;;;28.20;15.32;;;;;;;2.70;100.00;100587.50;7398746;19;20023;-66
2023/12/14 07:14:53;;;;;;;26.50;14.38;;;;;;;2.68;100.00;100576.25;7398671;19;20022;-66
2023/12/14 07:17:21;;;;;;;25.05;14.95;;;;;;;2.73;100.00;100591.81;7398421;19;20010;-67
2023/12/14 07:19:53;;;;;;;29.83;15.25;;;;;;;2.72;100.00;100585.78;7398001;19;20078;-66
2023/12/14 07:22:22;;;;;;;26.75;13.88;;;;;;;2.73;100.00;100592.72;7396529;19;20022;-67
2023/12/14 07:24:50;;;;;;;28.95;14.75;;;;;;;2.72;100.00;100606.50;7398154;19;20007;-66
2023/12/14 07:27:19;;;;;;;26.75;14.43;;;;;;;2.73;100.00;100612.56;7395346;19;20023;-66
2023/12/14 07:29:47;;;;;;;23.35;14.00;;;;;;;2.71;100.00;100611.69;7397640;19;20018;-66
2023/12/14 07:32:16;;;;;;;30.58;14.95;;;;;;;2.68;100.00;100622.91;7397561;19;20022;-67
2023/12/14 07:34:44;;;;;;;26.88;15.15;;;;;;;2.67;100.00;100626.34;7393999;19;20367;-66
2023/12/14 07:37:15;;;;;;;29.70;15.75;;;;;;;2.68;100.00;100627.19;7397401;19;20035;-66
2023/12/14 07:39:44;;;;;;;23.63;14.30;;;;;;;2.69;100.00;100624.63;7397378;19;20073;-66
2023/12/14 07:42:17;;;;;;;24.88;15.32;;;;;;;2.71;100.00;100635.00;7395817;19;20007;-67
2023/12/14 07:44:45;;;;;;;22.67;13.40;;;;;;;2.72;100.00;100642.78;7397155;19;20070;-66
2023/12/14 07:47:14;;;;;;;24.48;13.77;;;;;;;2.70;100.00;100652.25;7397517;19;20035;-66
2023/12/14 07:49:42;;;;;;;24.77;14.18;;;;;;;2.73;100.00;100656.59;7394700;19;20419;-67
2023/12/14 07:52:10;;;;;;;25.25;13.70;;;;;;;2.76;100.00;100651.47;7396547;19;20031;-67
2023/12/14 07:54:42;;;;;;;23.48;13.60;;;;;;;2.81;100.00;100656.69;7394848;19;20022;-67
2023/12/14 07:57:10;;;;;;;22.98;13.07;;;;;;;2.79;100.00;100658.38;7396953;19;20355;-67
2023/12/14 07:59:39;;;;;;;25.52;14.65;;;;;;;2.80;100.00;100663.56;7396414;19;20010;-67
2023/12/14 08:02:07;;;;;;;22.52;12.02;;;;;;;2.79;100.00;100671.34;7394176;19;20026;-67
2023/12/14 08:04:35;;;;;;;23.20;12.50;;;;;;;2.75;100.00;100668.72;7393145;19;20031;-67
2023/12/14 08:07:04;;;;;;;23.75;14.05;;;;;;;2.77;100.00;100666.16;7394383;19;20035;-67
2023/12/14 08:09:32;;;;;;;25.10;12.93;;;;;;;2.77;100.00;100672.19;7396938;19;20011;-67
2023/12/14 08:12:03;;;;;;;22.73;14.25;;;;;;;2.77;100.00;100684.28;7394786;19;20007;-67
2023/12/14 08:14:34;;;;;;;22.60;13.15;;;;;;;2.75;100.00;100692.03;7393728;19;20363;-67
2023/12/14 08:17:03;;;;;;;26.77;13.68;;;;;;;2.76;100.00;100695.50;7395503;19;20359;-67
2023/12/14 08:19:32;;;;;;;25.30;14.38;;;;;;;2.76;100.00;100706.72;7395408;19;20490;-67
2023/12/14 08:22:00;;;;;;;23.23;12.95;;;;;;;2.77;100.00;100695.50;7394307;19;20007;-66
2023/12/14 08:24:29;;;;;;;24.20;14.35;;;;;;;2.80;100.00;100706.78;7394430;19;20014;-67
2023/12/14 08:26:58;;;;;;;22.02;12.80;;;;;;;2.80;100.00;100711.94;7395480;19;20027;-66
2023/12/14 08:29:29;;;;;;;25.70;13.23;;;;;;;2.80;100.00;100719.72;7395403;19;20011;-66
2023/12/14 08:31:59;;;;;;;24.73;12.75;;;;;;;2.79;100.00;100724.03;7398061;19;20082;-65
2023/12/14 08:34:28;;;;;;;20.88;12.63;;;;;;;2.79;100.00;100724.03;7393975;19;20027;-66
2023/12/14 08:36:56;;;;;;;22.92;13.55;;;;;;;2.79;100.00;100734.38;7395941;19;20023;-66
2023/12/14 08:39:26;;;;;;;22.75;13.15;;;;;;;2.81;100.00;100745.66;7395224;19;20028;-66
2023/12/14 08:41:55;;;;;;;19.45;13.30;;;;;;;2.84;100.00;100742.22;7394265;19;20010;-66
2023/12/14 08:44:23;;;;;;;19.90;12.18;;;;;;;2.87;100.00;100744.81;7393361;19;20011;-66
2023/12/14 08:46:54;;;;;;;22.30;13.23;;;;;;;2.88;100.00;100749.16;7395302;19;20027;-66
2023/12/14 08:49:23;;;;;;;22.42;13.23;;;;;;;2.87;100.00;100755.19;7395111;19;20032;-67
2023/12/14 08:51:51;;;;;;;22.73;13.25;;;;;;;2.87;100.00;100760.38;7395211;19;20131;-67
2023/12/14 08:54:20;;;;;;;21.58;11.85;;;;;;;2.87;100.00;100762.97;7393883;19;20027;-68
2023/12/14 08:56:48;;;;;;;19.90;11.32;;;;;;;2.87;100.00;100760.38;7395072;19;20031;-67
2023/12/14 08:59:17;;;;;;;17.65;11.13;;;;;;;2.88;100.00;100768.19;7394806;19;20014;-66
2023/12/14 09:01:45;;;;;;;20.75;12.55;;;;;;;2.88;100.00;100768.19;7394407;19;20011;-66
2023/12/14 09:04:16;;;;;;;22.15;12.63;;;;;;;2.91;100.00;100778.56;7393339;19;20014;-67
2023/12/14 09:06:45;;;;;;;18.52;11.60;;;;;;;2.93;100.00;100783.75;7394766;19;20387;-67
2023/12/14 09:09:13;;;;;;;19.15;10.73;;;;;;;2.94;100.00;100780.31;7393175;19;20014;-67
2023/12/14 09:11:42;;;;;;;20.05;12.80;;;;;;;2.94;100.00;100785.50;7394807;19;20018;-66
2023/12/14 09:14:10;;;;;;;20.27;11.20;;;;;;;2.94;100.00;100795.88;7392500;19;20031;-65
2023/12/14 09:16:39;;;;;;;19.42;12.82;;;;;;;2.96;100.00;100793.28;7395835;19;20027;-66
2023/12/14 09:19:07;;;;;;;24.33;14.27;;;;;;;2.98;100.00;100796.78;7402315;19;20018;-66
2023/12/14 09:21:38;;;;;;;20.50;12.65;;;;;;;2.96;100.00;100799.34;7400985;19;20007;-66
2023/12/14 09:24:07;;;;;;;19.40;12.32;;;;;;;2.97;100.00;100797.63;7399905;19;20082;-67
2023/12/14 09:26:36;;;;;;;18.85;12.38;;;;;;;2.97;100.00;100805.41;7401579;19;20031;-66
2023/12/14 09:29:04;;;;;;;20.88;12.68;;;;;;;2.93;100.00;100813.16;7401382;19;20073;-66
2023/12/14 09:31:33;;;;;;;23.52;12.32;;;;;;;2.92;100.00;100807.97;7401156;19;20438;-67
2023/12/14 09:34:01;;;;;;;16.88;11.15;;;;;;;2.92;100.00;100815.75;7399833;19;20018;-67
2023/12/14 09:36:29;;;;;;;21.50;13.63;;;;;;;2.94;100.00;100814.00;7401548;19;20010;-66
2023/12/14 09:39:00;;;;;;;19.05;12.50;;;;;;;2.93;100.00;100826.13;7401243;19;20015;-67
2023/12/14 09:41:29;;;;;;;19.05;13.18;;;;;;;2.94;100.00;100837.34;7400970;19;20014;-67
2023/12/14 09:43:59;;;;;;;21.48;12.73;;;;;;;2.92;100.00;100841.66;7399587;19;20083;-67
2023/12/14 09:46:29;;;;;;;19.42;12.35;;;;;;;2.91;100.00;100839.91;7401406;19;20018;-67
2023/12/14 09:48:59;;;;;;;20.23;13.18;;;;;;;2.92;100.00;100849.44;7401482;19;20035;-67
2023/12/14 09:51:28;;;;;;;21.38;14.65;;;;;;;2.95;100.00;100851.19;7400604;19;20013;-67
2023/12/14 09:53:58;;;;;;;22.20;14.38;;;;;;;2.96;100.00;100851.19;7399462;19;20015;-67
2023/12/14 09:56:30;;;;;;;22.20;13.60;;;;;;;2.98;100.00;100856.38;7401238;19;20077;-67
2023/12/14 09:59:01;;;;;;;22.98;13.57;;;;;;;3.00;100.00;100858.16;7397978;19;20423;-68
2023/12/14 10:01:30;;;;;;;20.35;13.40;;;;;;;3.03;100.00;100857.31;7400258;19;20036;-67
2023/12/14 10:04:11;;;;;;;22.55;13.77;;;;;;;3.01;100.00;100856.41;7398204;19;20015;-67
2023/12/14 10:06:40;;;;;;;23.33;14.73;;;;;;;3.02;100.00;100859.03;7402108;19;20033;-67
2023/12/14 10:09:09;;;;;;;21.73;14.32;;;;;;;3.02;100.00;100855.56;7398954;19;20091;-67
2023/12/14 10:11:41;;;;;;;22.77;14.13;;;;;;;3.03;100.00;100855.59;7400426;19;20028;-67
2023/12/14 10:14:22;;;;;;;21.40;13.50;;;;;;;3.05;100.00;100858.22;7398438;19;20031;-67
2023/12/14 10:16:51;;;;;;;24.25;13.55;;;;;;;3.05;100.00;100856.47;7399890;19;20026;-67
2023/12/14 10:19:21;;;;;;;20.70;14.27;;;;;;;3.06;100.00;100868.59;7400150;19;20027;-69
2023/12/14 10:21:50;;;;;;;25.20;14.57;;;;;;;3.07;100.00;100875.50;7399113;19;20506;-68
2023/12/14 10:24:20;;;;;;;20.27;14.07;;;;;;;3.11;100.00;100873.84;7398149;19;20019;-69
2023/12/14 10:26:52;;;;;;;24.15;14.18;;;;;;;3.12;100.00;100877.28;7400012;19;20019;-68
2023/12/14 10:29:21;;;;;;;24.33;15.95;;;;;;;3.13;100.00;100887.66;7399513;19;20014;-68
2023/12/14 10:31:50;;;;;;;23.58;14.35;;;;;;;3.13;100.00;100879.03;7399868;19;20098;-68
2023/12/14 10:34:19;;;;;;;22.73;15.55;;;;;;;3.12;100.00;100877.28;7397256;19;20073;-68
2023/12/14 10:36:48;;;;;;;20.85;14.43;;;;;;;3.14;100.00;100879.03;7399487;19;20023;-68
2023/12/14 10:39:18;;;;;;;23.35;15.50;;;;;;;3.16;100.00;100889.41;7399395;19;20070;-68
2023/12/14 10:41:54;;;;;;;22.60;15.70;;;;;;;3.19;100.00;100892.06;7398638;19;20035;-68
2023/12/14 10:44:24;;;;;;;25.75;16.45;;;;;;;3.21;100.00;100896.41;7397942;19;20014;-69
2023/12/14 10:46:57;;;;;;;25.02;14.82;;;;;;;3.20;100.00;100896.41;7401035;19;20055;-70
2023/12/14 10:49:34;;;;;;;23.70;16.10;;;;;;;3.24;100.00;100906.81;7402660;19;20017;-69
2023/12/14 10:52:05;;;;;;;24.45;16.63;;;;;;;3.27;100.00;100903.38;7398624;19;20380;-69
2023/12/14 10:54:37;;;;;;;23.33;15.52;;;;;;;3.28;100.00;100910.31;7397019;19;20037;-69
2023/12/14 10:57:09;;;;;;;23.65;14.65;;;;;;;3.27;100.00;100916.34;7399336;19;20010;-68
2023/12/14 10:59:37;;;;;;;24.02;15.73;;;;;;;3.25;100.00;100925.84;7398750;19;20014;-68
2023/12/14 11:02:11;;;;;;;25.73;16.20;;;;;;;3.23;100.00;100928.41;7397539;19;20019;-67
2023/12/14 11:04:59;;;;;;;26.17;16.23;;;;;;;3.22;100.00;100930.97;7396154;19;20015;-67
2023/12/14 11:07:46;;;;;;;26.52;15.77;;;;;;;3.20;100.00;100932.69;7395408;19;20547;-68
2023/12/14 11:10:14;;;;;;;23.65;16.15;;;;;;;3.20;100.00;100933.56;7398645;19;20025;-68
2023/12/14 11:12:59;;;;;;;25.73;15.55;;;;;;;3.18;100.00;100929.22;7398116;19;20011;-68
2023/12/14 11:15:28;;;;;;;24.92;16.10;;;;;;;3.18;100.00;100930.06;7399304;19;20011;-69
2023/12/14 11:18:27;;;;;;;25.55;16.23;;;;;;;3.17;100.00;100938.72;7398107;19;20033;-68
2023/12/14 11:21:01;;;;;;;27.85;16.20;;;;;;;3.13;100.00;100925.69;7397271;19;20027;-67